Time;durP1;ratioP1;P1;durP2;ratioP2;P2;SDS_P1;SDS_P2;PMS_P1;PMS_P2;Temp;Humidity;BMP_temperature;BMP_pressure;BME280_temperature;BME280_humidity;BME280_pressure;Samples;Min_cycle;Max_cycle;Signal;HPM_P1;HPM_P2
2023/06/30 01:54:11;;;;;;;;;;;;;;;;;;;;;
2023/06/30 01:57:44;;;;;;;0.52;0.30;;;;;;;-145.06;0.00;60892.56;5984221;23;20012;-92
2023/06/30 02:04:29;;;;;;;0.98;0.30;;;;;;;-145.06;0.00;60892.56;5980605;23;20013;-92
2023/06/30 02:07:28;;;;;;;;;;;;;;;;;;;;;
2023/06/30 02:10:35;;;;;;;0.30;0.30;;;;;;;-145.06;0.00;60892.56;5985609;23;20005;-91
2023/06/30 02:13:47;;;;;;;0.55;0.40;;;;;;;-145.06;0.00;60892.56;5954250;23;20005;-92
2023/06/30 02:16:30;;;;;;;0.77;0.30;;;;;;;-145.06;0.00;60892.56;5953692;23;20017;-91
2023/06/30 02:19:25;;;;;;;;;;;;;;;;;;;;;
2023/06/30 02:22:11;;;;;;;0.40;0.32;;;;;;;-145.06;0.00;60892.56;5985054;23;20008;-91
2023/06/30 02:25:00;;;;;;;0.40;0.38;;;;;;;-145.06;0.00;60892.56;5953775;23;20032;-92
2023/06/30 02:27:48;;;;;;;0.50;0.30;;;;;;;-145.06;0.00;60892.56;5953650;23;20008;-91
2023/06/30 02:30:49;;;;;;;0.88;0.55;;;;;;;-145.06;0.00;60892.56;5953361;23;20001;-92
2023/06/30 02:33:30;;;;;;;0.90;0.50;;;;;;;-145.06;0.00;60892.56;5953236;23;20392;-91
2023/06/30 02:36:12;;;;;;;1.65;0.60;;;;;;;-145.06;0.00;60892.56;5954229;23;20008;-92
2023/06/30 02:38:54;;;;;;;0.70;0.60;;;;;;;-145.06;0.00;60892.56;5953162;23;20001;-92
2023/06/30 02:41:39;;;;;;;1.63;0.65;;;;;;;-145.06;0.00;60892.56;5953158;23;20033;-91
2023/06/30 02:44:20;;;;;;;0.40;0.40;;;;;;;-145.06;0.00;60892.56;5953426;23;20325;-91
2023/06/30 02:47:02;;;;;;;0.60;0.60;;;;;;;-145.06;0.00;60892.56;5952750;23;20317;-92
2023/06/30 02:49:41;;;;;;;0.70;0.50;;;;;;;17.32;0.00;60892.56;5953047;23;20009;-90
2023/06/30 02:52:27;;;;;;;0.70;0.60;;;;;;;-145.06;0.00;60892.56;5944786;23;20013;-92
2023/06/30 02:55:08;;;;;;;1.38;0.60;;;;;;;17.29;0.00;60892.56;5945182;23;20319;-92
2023/06/30 02:57:50;;;;;;;0.45;0.40;;;;;;;-145.06;0.00;60892.56;5945242;23;20002;-91
2023/06/30 03:00:30;;;;;;;1.20;0.70;;;;;;;-145.06;0.00;60892.56;5944198;23;20009;-91
2023/06/30 03:03:09;;;;;;;0.87;0.73;;;;;;;-145.06;0.00;60892.56;5945871;23;20317;-92
2023/06/30 03:05:49;;;;;;;0.65;0.52;;;;;;;-145.06;0.00;60892.56;5945391;23;20496;-92
2023/06/30 03:08:29;;;;;;;0.95;0.75;;;;;;;-145.06;0.00;60892.56;5944504;23;20009;-90
2023/06/30 03:11:12;;;;;;;1.20;0.80;;;;;;;17.22;0.00;60892.56;5945221;23;20013;-92
2023/06/30 03:13:54;;;;;;;2.35;0.85;;;;;;;-145.06;0.00;60892.56;5944876;23;20088;-92
2023/06/30 03:16:36;;;;;;;1.35;0.70;;;;;;;-145.06;0.00;60892.56;5945409;23;20017;-91
2023/06/30 03:19:16;;;;;;;0.85;0.77;;;;;;;-145.06;0.00;60892.56;5944909;23;20033;-92
2023/06/30 03:21:55;;;;;;;1.48;0.90;;;;;;;21.08;0.00;60892.56;5944877;23;20009;-91
2023/06/30 03:24:34;;;;;;;1.00;0.80;;;;;;;-145.06;0.00;60892.56;5944993;23;20302;-94
2023/06/30 03:27:14;;;;;;;0.85;0.73;;;;;;;-145.06;0.00;60892.56;5945852;23;20238;-91
2023/06/30 03:29:53;;;;;;;0.70;0.60;;;;;;;-145.06;0.00;60892.56;5944953;23;20009;-92
2023/06/30 03:32:35;;;;;;;3.20;0.90;;;;;;;-145.06;0.00;60892.56;5945055;23;20010;-94
2023/06/30 03:35:17;;;;;;;1.67;0.80;;;;;;;-145.06;0.00;60892.56;5944593;23;20010;-91
2023/06/30 03:37:59;;;;;;;1.40;0.93;;;;;;;-145.06;0.00;60892.56;5955753;23;20009;-92
2023/06/30 03:40:38;;;;;;;1.10;0.70;;;;;;;17.18;0.00;60892.56;5944615;23;20005;-93
2023/06/30 03:43:22;;;;;;;2.73;1.10;;;;;;;-145.06;0.00;60892.56;5945175;23;19997;-93
2023/06/30 03:46:03;;;;;;;1.52;0.93;;;;;;;-145.06;0.00;60892.56;5954748;23;20253;-93
2023/06/30 03:48:44;;;;;;;0.80;0.65;;;;;;;-145.06;0.00;60892.56;5945150;23;20321;-92
2023/06/30 03:51:24;;;;;;;1.33;0.80;;;;;;;-145.06;0.00;60892.56;5945524;23;20084;-92
2023/06/30 03:54:03;;;;;;;1.02;0.75;;;;;;;-145.06;0.00;60892.56;5945412;23;20009;-93
2023/06/30 03:56:44;;;;;;;1.03;0.73;;;;;;;-145.06;0.00;60892.56;5944176;23;20033;-93
2023/06/30 03:59:25;;;;;;;1.40;0.80;;;;;;;-145.06;0.00;60892.56;5944650;23;20009;-92
2023/06/30 04:02:05;;;;;;;1.88;0.95;;;;;;;21.08;0.00;60892.56;5944292;23;20005;-92
2023/06/30 04:04:44;;;;;;;1.33;0.95;;;;;;;-145.06;0.00;60892.56;5943635;23;20005;-92
2023/06/30 04:07:23;;;;;;;1.20;0.90;;;;;;;-145.06;0.00;60892.56;5944652;23;20074;-91
2023/06/30 04:10:02;;;;;;;2.38;1.10;;;;;;;-145.06;0.00;60892.56;5944154;23;20009;-92
2023/06/30 04:12:59;;;;;;;1.15;0.90;;;;;;;-145.06;0.00;60892.56;5944505;23;20060;-93
2023/06/30 04:15:38;;;;;;;1.08;0.98;;;;;;;17.07;0.00;60892.56;5955913;23;20005;-93
2023/06/30 04:18:17;;;;;;;1.73;1.00;;;;;;;-145.06;0.00;60892.56;5944285;23;20036;-91
2023/06/30 04:20:56;;;;;;;1.27;0.80;;;;;;;-145.06;0.00;60892.56;5944055;23;20013;-92
2023/06/30 04:23:36;;;;;;;1.65;0.82;;;;;;;-145.06;0.00;60892.56;5965530;23;20006;-92
2023/06/30 04:26:19;;;;;;;2.35;1.10;;;;;;;-145.06;0.00;60892.56;5964655;23;20021;-92
2023/06/30 04:28:58;;;;;;;1.25;0.80;;;;;;;-145.06;0.00;60892.56;5945167;23;20009;-92
2023/06/30 04:31:37;;;;;;;2.33;0.90;;;;;;;-145.06;0.00;60892.56;5943854;23;20014;-93
2023/06/30 04:34:18;;;;;;;1.40;1.10;;;;;;;-145.06;0.00;60892.56;5923470;23;20473;-93
2023/06/30 04:36:58;;;;;;;2.33;0.80;;;;;;;-145.06;0.00;60892.56;5944044;23;20010;-92
2023/06/30 04:39:39;;;;;;;2.10;0.82;;;;;;;-145.06;0.00;60892.56;5944208;23;20016;-92
2023/06/30 04:42:18;;;;;;;1.48;0.93;;;;;;;-145.06;0.00;60892.56;5944702;23;20001;-91
2023/06/30 04:44:57;;;;;;;0.88;0.70;;;;;;;-145.06;0.00;60892.56;5954221;23;20033;-93
2023/06/30 04:47:38;;;;;;;1.50;0.77;;;;;;;17.04;0.00;60892.56;5943895;23;20009;-91
2023/06/30 04:50:18;;;;;;;1.80;0.80;;;;;;;17.02;0.00;60892.56;5944076;23;20233;-91
2023/06/30 04:52:57;;;;;;;0.75;0.50;;;;;;;-145.06;0.00;60892.56;5938965;23;20010;-90
2023/06/30 04:55:38;;;;;;;1.87;0.77;;;;;;;-145.06;0.00;60892.56;5946330;23;20041;-90
2023/06/30 04:58:33;;;;;;;1.30;0.60;;;;;;;-145.06;0.00;60892.56;5946285;23;20010;-91
2023/06/30 05:01:28;;;;;;;0.95;0.60;;;;;;;-145.06;0.00;60892.56;5946238;23;20322;-92
2023/06/30 05:04:10;;;;;;;2.17;0.60;;;;;;;-145.06;0.00;60892.56;5946767;23;20006;-91
2023/06/30 05:07:09;;;;;;;;;;;;;;;;;;;;;
2023/06/30 05:10:10;;;;;;;1.65;0.57;;;;;;;-145.06;0.00;60892.56;5957399;23;20009;-92
2023/06/30 05:13:27;;;;;;;1.60;0.95;;;;;;;-145.06;0.00;60892.56;5926483;23;20041;-91
2023/06/30 05:16:20;;;;;;;1.23;0.50;;;;;;;-145.06;0.00;60892.56;5945756;23;20013;-91
2023/06/30 05:25:59;;;;;;;2.80;0.50;;;;;;;-145.06;0.00;60892.56;5955793;23;20005;-91
2023/06/30 05:29:40;;;;;;;2.30;0.98;;;;;;;-145.06;0.00;60892.56;5945532;23;20009;-92
2023/06/30 05:32:18;;;;;;;1.08;0.50;;;;;;;-145.06;0.00;60892.56;5941916;23;20010;-92
2023/06/30 05:34:57;;;;;;;1.45;0.70;;;;;;;-145.06;0.00;60892.56;5942590;23;20006;-91
2023/06/30 05:37:36;;;;;;;0.90;0.50;;;;;;;-145.06;0.00;60892.56;5945106;23;20037;-91
2023/06/30 05:40:15;;;;;;;0.63;0.50;;;;;;;-145.06;0.00;60892.56;5944037;23;20233;-92
2023/06/30 05:42:57;;;;;;;2.72;1.05;;;;;;;-145.06;0.00;60892.56;5943986;23;19997;-91
2023/06/30 05:45:37;;;;;;;0.60;0.40;;;;;;;-145.06;0.00;60892.56;5946254;23;20068;-92
2023/06/30 05:48:16;;;;;;;1.10;0.60;;;;;;;187.52;0.00;60892.56;5945147;23;20005;-92
2023/06/30 05:50:55;;;;;;;1.20;0.52;;;;;;;-145.06;0.00;60892.56;5944035;23;20009;-92
2023/06/30 05:53:34;;;;;;;2.47;0.70;;;;;;;-145.06;0.00;60892.56;5980792;23;20009;-93
2023/06/30 05:56:12;;;;;;;2.17;0.83;;;;;;;16.95;0.00;60892.56;5951244;23;20233;-92
2023/06/30 05:58:51;;;;;;;2.53;0.70;;;;;;;-145.06;0.00;60892.56;5953108;23;20033;-92
2023/06/30 06:01:30;;;;;;;1.43;0.50;;;;;;;-145.06;0.00;60892.56;5952879;23;20312;-93
2023/06/30 06:04:10;;;;;;;2.38;0.60;;;;;;;-145.06;0.00;60892.56;5983759;23;20228;-90
2023/06/30 06:06:50;;;;;;;2.63;0.88;;;;;;;-145.06;0.00;60892.56;5952318;23;20009;-91
2023/06/30 06:09:29;;;;;;;1.53;0.53;;;;;;;-145.06;0.00;60892.56;5952080;23;20013;-92
2023/06/30 06:12:08;;;;;;;0.68;0.60;;;;;;;-145.06;0.00;60892.56;5984105;23;20005;-91
2023/06/30 06:14:47;;;;;;;1.45;0.65;;;;;;;-145.06;0.00;60892.56;5952446;23;20009;-91
2023/06/30 06:17:26;;;;;;;1.80;0.60;;;;;;;-145.06;0.00;60892.56;5951490;23;20046;-91
2023/06/30 06:20:06;;;;;;;1.23;0.70;;;;;;;-145.06;0.00;60892.56;5952320;23;20451;-92
2023/06/30 06:22:45;;;;;;;0.75;0.63;;;;;;;-145.06;0.00;60892.56;5952157;23;20001;-92
2023/06/30 06:25:24;;;;;;;1.17;0.60;;;;;;;17.02;0.00;60892.56;5951531;23;20009;-92
2023/06/30 06:28:10;;;;;;;1.08;0.57;;;;;;;-145.06;0.00;60892.56;5952159;23;20296;-92
2023/06/30 06:30:49;;;;;;;1.25;0.68;;;;;;;-145.06;0.00;60892.56;5952227;23;20001;-92
2023/06/30 06:33:30;;;;;;;1.95;0.65;;;;;;;-145.06;0.00;60892.56;5982880;23;20005;-91
2023/06/30 06:36:10;;;;;;;0.90;0.60;;;;;;;-145.06;0.00;60892.56;5951986;23;20005;-92
2023/06/30 06:38:49;;;;;;;0.90;0.65;;;;;;;-145.06;0.00;60892.56;5951639;23;20008;-92
2023/06/30 06:41:29;;;;;;;0.77;0.60;;;;;;;-145.06;0.00;60892.56;5951146;23;20005;-92
2023/06/30 06:44:08;;;;;;;1.50;0.60;;;;;;;17.03;0.00;60892.56;5950479;23;20325;-90
2023/06/30 06:46:47;;;;;;;1.07;0.63;;;;;;;17.00;0.00;60892.56;5951827;23;20013;-91
2023/06/30 06:49:26;;;;;;;2.33;1.00;;;;;;;-145.06;0.00;60892.56;5949417;23;20232;-92
2023/06/30 06:52:05;;;;;;;1.08;0.68;;;;;;;-145.06;0.00;60892.56;5942886;23;20040;-91
2023/06/30 06:54:44;;;;;;;0.55;0.52;;;;;;;17.00;0.00;60892.56;5942556;23;20005;-92
2023/06/30 06:57:23;;;;;;;0.90;0.70;;;;;;;-145.06;0.00;60892.56;5943066;23;20032;-91
2023/06/30 07:00:02;;;;;;;0.95;0.50;;;;;;;-145.06;0.00;60892.56;5942688;23;20234;-92
2023/06/30 07:02:41;;;;;;;1.50;0.70;;;;;;;-145.06;0.00;60892.56;5943162;23;20036;-90
2023/06/30 07:05:21;;;;;;;0.75;0.65;;;;;;;-145.06;0.00;60892.56;5943496;23;20013;-92
2023/06/30 07:08:00;;;;;;;3.38;0.75;;;;;;;-145.06;0.00;60892.56;5942480;23;20005;-91
2023/06/30 07:10:39;;;;;;;1.13;0.67;;;;;;;-145.06;0.00;60892.56;5942391;23;20014;-92
2023/06/30 07:13:20;;;;;;;0.85;0.60;;;;;;;-145.06;0.00;60892.56;5942469;23;20306;-92
2023/06/30 07:15:59;;;;;;;1.02;0.65;;;;;;;-145.06;0.00;60892.56;5941847;23;20010;-91
2023/06/30 07:18:38;;;;;;;2.78;0.75;;;;;;;-145.06;0.00;60892.56;5942614;23;20394;-92
2023/06/30 07:21:18;;;;;;;1.35;0.73;;;;;;;-145.06;0.00;60892.56;5942270;23;20009;-91
2023/06/30 07:23:56;;;;;;;1.08;0.60;;;;;;;-145.06;0.00;60892.56;5941755;23;20013;-91
2023/06/30 07:26:35;;;;;;;0.63;0.50;;;;;;;-145.06;0.00;60892.56;5942393;23;20009;-92
2023/06/30 07:29:14;;;;;;;1.17;0.60;;;;;;;-145.06;0.00;60892.56;5941742;23;20013;-92
2023/06/30 07:31:53;;;;;;;0.80;0.50;;;;;;;-145.06;0.00;60892.56;5943006;23;20009;-93
2023/06/30 07:34:33;;;;;;;1.00;0.57;;;;;;;-145.06;0.00;60892.56;5965975;23;20014;-93
2023/06/30 07:37:12;;;;;;;2.38;0.57;;;;;;;-145.06;0.00;60892.56;5959161;23;20017;-91
2023/06/30 07:39:51;;;;;;;3.47;0.63;;;;;;;-145.06;0.00;60892.56;5942729;23;20029;-90
2023/06/30 07:42:30;;;;;;;1.00;0.50;;;;;;;-145.06;0.00;60892.56;5940914;23;20480;-91
2023/06/30 07:45:11;;;;;;;0.85;0.63;;;;;;;-145.06;0.00;60892.56;5941496;23;20033;-91
2023/06/30 07:47:50;;;;;;;1.13;0.50;;;;;;;-145.06;0.00;60892.56;5941640;23;20005;-92
2023/06/30 07:50:29;;;;;;;1.10;0.40;;;;;;;17.25;0.00;60892.56;5941821;23;20013;-91
2023/06/30 07:53:08;;;;;;;1.75;0.50;;;;;;;-145.06;0.00;60892.56;5940360;23;20017;-92
2023/06/30 07:55:47;;;;;;;0.65;0.40;;;;;;;-145.06;0.00;60892.56;5940071;23;20440;-92
2023/06/30 07:58:26;;;;;;;0.85;0.40;;;;;;;-145.06;0.00;60892.56;5950911;23;20013;-91
2023/06/30 08:01:05;;;;;;;0.52;0.38;;;;;;;-145.06;0.00;60892.56;5940497;23;20009;-91
2023/06/30 08:03:44;;;;;;;0.80;0.30;;;;;;;-145.06;0.00;60892.56;5940727;23;20010;-90
2023/06/30 08:06:23;;;;;;;1.35;0.50;;;;;;;-145.06;0.00;60892.56;5939847;23;20002;-92
2023/06/30 08:09:02;;;;;;;0.40;0.30;;;;;;;-145.06;0.00;60892.56;5939990;23;20005;-91
2023/06/30 08:11:41;;;;;;;0.90;0.40;;;;;;;-145.06;0.00;60892.56;5940380;23;20727;-92
2023/06/30 08:14:20;;;;;;;0.82;0.35;;;;;;;-145.06;0.00;60892.56;5940035;23;20009;-91
2023/06/30 08:16:59;;;;;;;0.55;0.40;;;;;;;-145.06;0.00;60892.56;5940919;23;20432;-91
2023/06/30 08:19:41;;;;;;;1.23;0.38;;;;;;;-145.06;0.00;60892.56;5939347;23;20009;-91
2023/06/30 08:22:21;;;;;;;0.63;0.40;;;;;;;-145.06;0.00;60892.56;5939307;23;20005;-91
2023/06/30 08:25:00;;;;;;;0.90;0.40;;;;;;;-145.06;0.00;60892.56;5940607;23;20009;-91
2023/06/30 08:27:39;;;;;;;0.70;0.40;;;;;;;-145.06;0.00;60892.56;5940164;23;20009;-91
2023/06/30 08:30:18;;;;;;;1.58;0.30;;;;;;;-145.06;0.00;60892.56;5938592;23;20017;-90
2023/06/30 08:32:57;;;;;;;0.40;0.40;;;;;;;-145.06;0.00;60892.56;5940763;23;20005;-92
2023/06/30 08:35:36;;;;;;;1.53;0.40;;;;;;;-145.06;0.00;60892.56;5939859;23;20352;-91
2023/06/30 08:38:15;;;;;;;0.98;0.30;;;;;;;-145.06;0.00;60892.56;5939683;23;20013;-90
2023/06/30 08:40:55;;;;;;;1.20;0.47;;;;;;;-145.06;0.00;60892.56;5939649;23;20044;-91
2023/06/30 08:43:37;;;;;;;0.65;0.30;;;;;;;-145.06;0.00;60892.56;5940373;23;20318;-92
2023/06/30 08:46:22;;;;;;;0.25;0.25;;;;;;;-145.06;0.00;60892.56;5939595;23;20013;-90
2023/06/30 08:49:01;;;;;;;0.60;0.43;;;;;;;-145.06;0.00;60892.56;5940041;23;20005;-91
2023/06/30 08:51:41;;;;;;;0.90;0.50;;;;;;;-145.06;0.00;60892.56;5942152;23;20013;-91
2023/06/30 08:54:20;;;;;;;0.50;0.40;;;;;;;-145.06;0.00;60892.56;5946384;23;20005;-91
2023/06/30 08:57:01;;;;;;;0.60;0.30;;;;;;;-145.06;0.00;60892.56;5947135;23;20040;-91
2023/06/30 08:59:39;;;;;;;0.50;0.40;;;;;;;-145.06;0.00;60892.56;5947365;23;20004;-92
2023/06/30 09:02:19;;;;;;;1.15;0.38;;;;;;;-145.06;0.00;60892.56;5947856;23;20009;-91
2023/06/30 09:04:59;;;;;;;0.40;0.40;;;;;;;-145.06;0.00;60892.56;5946623;23;20009;-91
2023/06/30 09:07:46;;;;;;;1.63;0.50;;;;;;;19.45;0.00;60892.56;5946735;23;20005;-91
2023/06/30 09:10:33;;;;;;;1.98;0.43;;;;;;;-145.06;0.00;60892.56;5946478;23;20009;-91
2023/06/30 09:13:16;;;;;;;0.40;0.40;;;;;;;-145.06;0.00;60892.56;5949000;23;20005;-90
2023/06/30 09:15:58;;;;;;;0.50;0.38;;;;;;;-145.06;0.00;60892.56;5948879;23;20005;-92
2023/06/30 09:18:37;;;;;;;0.30;0.30;;;;;;;-145.06;0.00;60892.56;5949238;23;20009;-91
2023/06/30 09:21:16;;;;;;;1.00;0.37;;;;;;;-145.06;0.00;60892.56;5980642;23;20075;-91
2023/06/30 09:23:55;;;;;;;1.20;0.40;;;;;;;19.50;0.00;60892.56;5949886;23;20029;-91
2023/06/30 09:26:34;;;;;;;1.08;0.40;;;;;;;-145.06;0.00;60892.56;5982107;23;20527;-91
2023/06/30 09:29:13;;;;;;;0.88;0.38;;;;;;;-145.06;0.00;60892.56;5948730;23;20317;-91
2023/06/30 09:31:52;;;;;;;0.85;0.40;;;;;;;-145.06;0.00;60892.56;5981148;23;20282;-91
2023/06/30 09:34:31;;;;;;;0.47;0.40;;;;;;;-145.06;0.00;60892.56;5947475;23;20013;-90
2023/06/30 09:37:15;;;;;;;1.45;0.30;;;;;;;-145.06;0.00;60892.56;5948943;23;20004;-92
2023/06/30 09:39:54;;;;;;;0.43;0.25;;;;;;;-145.06;0.00;60892.56;5946840;23;20009;-92
2023/06/30 09:42:34;;;;;;;0.63;0.32;;;;;;;-145.06;0.00;60892.56;5948482;23;20032;-92
2023/06/30 09:45:13;;;;;;;0.60;0.22;;;;;;;-145.06;0.00;60892.56;5949038;23;20013;-90
2023/06/30 09:47:53;;;;;;;0.60;0.40;;;;;;;20.09;0.00;60892.56;5949530;23;20013;-91
2023/06/30 09:50:33;;;;;;;0.45;0.32;;;;;;;-145.06;0.00;60892.56;5948705;23;20009;-90
2023/06/30 09:53:18;;;;;;;0.65;0.30;;;;;;;-145.06;0.00;60892.56;5940845;23;20010;-90
2023/06/30 09:55:57;;;;;;;0.30;0.30;;;;;;;-145.06;0.00;60892.56;5940371;23;20010;-91
2023/06/30 09:58:39;;;;;;;0.67;0.20;;;;;;;-145.06;0.00;60892.56;5941180;23;20002;-91
2023/06/30 10:01:20;;;;;;;1.02;0.30;;;;;;;-145.06;0.00;60892.56;5939888;23;20237;-91
2023/06/30 10:04:00;;;;;;;1.38;0.43;;;;;;;-145.06;0.00;60892.56;5940637;23;20313;-91
2023/06/30 10:06:39;;;;;;;1.75;0.30;;;;;;;-145.06;0.00;60892.56;5939183;23;20009;-92
2023/06/30 10:09:21;;;;;;;1.23;0.40;;;;;;;-145.06;0.00;60892.56;5940168;23;20013;-91
2023/06/30 10:12:01;;;;;;;0.55;0.50;;;;;;;20.64;0.00;60892.56;5939073;23;20496;-90
2023/06/30 10:14:41;;;;;;;0.30;0.20;;;;;;;-145.06;0.00;60892.56;5939586;23;20013;-91
2023/06/30 10:17:20;;;;;;;0.43;0.25;;;;;;;-145.06;0.00;60892.56;5940058;23;20013;-91
2023/06/30 10:20:01;;;;;;;0.45;0.32;;;;;;;-145.06;0.00;60892.56;5940421;23;20002;-91
2023/06/30 10:22:42;;;;;;;0.75;0.28;;;;;;;-145.06;0.00;60892.56;5939293;23;20009;-92
2023/06/30 10:25:25;;;;;;;0.20;0.20;;;;;;;-145.06;0.00;60892.56;5940460;23;20037;-91
2023/06/30 10:28:06;;;;;;;0.52;0.30;;;;;;;-145.06;0.00;60892.56;5939917;23;20005;-91
2023/06/30 10:30:49;;;;;;;0.50;0.32;;;;;;;-145.06;0.00;60892.56;5939753;23;20013;-90
2023/06/30 10:33:28;;;;;;;0.30;0.30;;;;;;;-145.06;0.00;60892.56;5937379;23;20006;-91
2023/06/30 10:36:08;;;;;;;0.60;0.40;;;;;;;21.01;0.00;60892.56;5940946;23;20013;-91
2023/06/30 10:38:47;;;;;;;0.22;0.20;;;;;;;-145.06;0.00;60892.56;5938911;23;20013;-91
2023/06/30 10:41:26;;;;;;;;;;;;;;;-145.06;0.00;60892.56;5940675;23;20005;-92
2023/06/30 10:44:06;;;;;;;0.80;0.40;;;;;;;-145.06;0.00;60892.56;5939913;23;19909;-92
2023/06/30 10:46:53;;;;;;;0.50;0.30;;;;;;;-145.06;0.00;60892.56;5943473;23;20005;-91
2023/06/30 10:49:35;;;;;;;0.20;0.20;;;;;;;-145.06;0.00;60892.56;5964108;23;20002;-92
2023/06/30 10:52:27;;;;;;;0.75;0.30;;;;;;;-145.06;0.00;60892.56;5956521;23;20018;-90
2023/06/30 10:55:06;;;;;;;0.50;0.30;;;;;;;-145.06;0.00;60892.56;5939479;23;20044;-91
2023/06/30 10:57:49;;;;;;;0.35;0.28;;;;;;;-145.06;0.00;60892.56;5939453;23;20005;-91
2023/06/30 11:00:31;;;;;;;0.57;0.30;;;;;;;-145.06;0.00;60892.56;5939701;23;20017;-91
2023/06/30 11:03:10;;;;;;;0.40;0.30;;;;;;;-145.06;0.00;60892.56;5939876;23;20009;-91
2023/06/30 11:05:49;;;;;;;0.50;0.25;;;;;;;-145.06;0.00;60892.56;5940321;23;20013;-92
2023/06/30 11:08:28;;;;;;;0.38;0.25;;;;;;;-145.06;0.00;60892.56;5939776;23;20468;-92
2023/06/30 11:11:07;;;;;;;0.30;0.20;;;;;;;21.99;0.00;60892.56;5938732;23;20013;-91
2023/06/30 11:13:47;;;;;;;0.70;0.30;;;;;;;-145.06;0.00;60892.56;5938967;23;20401;-91
2023/06/30 11:16:29;;;;;;;0.63;0.30;;;;;;;-145.06;0.00;60892.56;5940030;23;20440;-91
2023/06/30 11:19:22;;;;;;;0.30;0.30;;;;;;;-145.06;0.00;60892.56;5939159;23;20475;-91
2023/06/30 11:22:25;;;;;;;0.55;0.38;;;;;;;-145.06;0.00;60892.56;5938444;23;20321;-92
2023/06/30 11:25:05;;;;;;;0.30;0.20;;;;;;;-145.06;0.00;60892.56;5938846;23;20009;-92
2023/06/30 11:27:45;;;;;;;0.30;0.20;;;;;;;-145.06;0.00;60892.56;5939250;23;20013;-91
2023/06/30 11:30:24;;;;;;;0.50;0.30;;;;;;;-145.06;0.00;60892.56;5939304;23;20037;-91
2023/06/30 11:33:05;;;;;;;0.55;0.30;;;;;;;-145.06;0.00;60892.56;5949408;23;20005;-91
2023/06/30 11:35:50;;;;;;;0.30;0.20;;;;;;;-145.06;0.00;60892.56;5939682;23;20013;-92
2023/06/30 11:38:30;;;;;;;0.82;0.30;;;;;;;-145.06;0.00;60892.56;5939564;23;20013;-92
2023/06/30 11:41:08;;;;;;;0.28;0.20;;;;;;;-145.06;0.00;60892.56;5939848;23;20013;-92
2023/06/30 11:43:55;;;;;;;1.20;0.25;;;;;;;-145.06;0.00;60892.56;5939853;23;20002;-92
2023/06/30 11:46:36;;;;;;;0.20;0.20;;;;;;;22.90;0.00;60892.56;5939109;23;20005;-91
2023/06/30 11:49:15;;;;;;;0.10;0.10;;;;;;;-145.06;0.00;60892.56;5939597;23;20013;-92
2023/06/30 11:51:54;;;;;;;0.50;0.30;;;;;;;-145.06;0.00;60892.56;5945783;23;20009;-91
2023/06/30 11:54:35;;;;;;;0.70;0.40;;;;;;;-145.06;0.00;60892.56;5946866;23;20036;-91
2023/06/30 11:57:14;;;;;;;0.57;0.25;;;;;;;-145.06;0.00;60892.56;5947233;23;20148;-91
2023/06/30 11:59:53;;;;;;;0.30;0.30;;;;;;;-145.06;0.00;60892.56;5947401;23;20001;-91
2023/06/30 12:02:32;;;;;;;1.35;0.20;;;;;;;-145.06;0.00;60892.56;5947391;23;20004;-91
2023/06/30 12:05:18;;;;;;;0.73;0.37;;;;;;;-145.06;0.00;60892.56;5947450;23;20317;-91
2023/06/30 12:07:57;;;;;;;0.30;0.30;;;;;;;-145.06;0.00;60892.56;5946512;23;20232;-92
2023/06/30 12:10:37;;;;;;;0.30;0.30;;;;;;;-145.06;0.00;60892.56;5947282;23;20648;-91
2023/06/30 12:13:17;;;;;;;0.40;0.30;;;;;;;-145.06;0.00;60892.56;5946730;23;20013;-92
2023/06/30 12:15:57;;;;;;;0.70;0.20;;;;;;;-145.06;0.00;60892.56;5946147;23;20013;-91
2023/06/30 12:18:37;;;;;;;0.20;0.20;;;;;;;-145.06;0.00;60892.56;5946972;23;20096;-91
2023/06/30 12:21:16;;;;;;;0.70;0.30;;;;;;;-145.06;0.00;60892.56;5946602;23;20484;-91
2023/06/30 12:23:56;;;;;;;0.30;0.30;;;;;;;-145.06;0.00;60892.56;5946217;23;20313;-92
2023/06/30 12:26:36;;;;;;;0.20;0.15;;;;;;;-145.06;0.00;60892.56;5946615;23;20032;-91
2023/06/30 12:29:18;;;;;;;0.57;0.32;;;;;;;-145.06;0.00;60892.56;5945746;23;20013;-91
2023/06/30 12:31:58;;;;;;;0.30;0.20;;;;;;;-145.06;0.00;60892.56;5946598;23;20009;-92
2023/06/30 12:34:37;;;;;;;0.28;0.22;;;;;;;-145.06;0.00;60892.56;5946088;23;20009;-91
2023/06/30 12:37:17;;;;;;;0.70;0.20;;;;;;;62.66;0.00;60892.56;5923999;23;20021;-91
2023/06/30 12:40:01;;;;;;;0.20;0.20;;;;;;;-145.06;0.00;60892.56;5946199;23;20288;-91
2023/06/30 12:42:45;;;;;;;0.30;0.20;;;;;;;-145.06;0.00;60892.56;5946653;23;20436;-92
2023/06/30 12:45:24;;;;;;;0.38;0.20;;;;;;;-145.06;0.00;60892.56;5945258;23;20012;-91
2023/06/30 12:48:03;;;;;;;0.43;0.30;;;;;;;-145.06;0.00;60892.56;5977350;23;20013;-91
2023/06/30 12:50:42;;;;;;;0.60;0.30;;;;;;;-145.06;0.00;60892.56;5944711;23;20556;-91
2023/06/30 12:53:21;;;;;;;0.65;0.30;;;;;;;-145.06;0.00;60892.56;5938152;23;20045;-90
2023/06/30 12:56:00;;;;;;;0.50;0.20;;;;;;;-145.06;0.00;60892.56;5936880;23;20369;-92
2023/06/30 12:58:39;;;;;;;0.68;0.30;;;;;;;-145.06;0.00;60892.56;5938210;23;20014;-92
2023/06/30 13:01:18;;;;;;;0.20;0.20;;;;;;;24.35;0.00;60892.56;5937888;23;20017;-92
2023/06/30 13:03:57;;;;;;;0.30;0.30;;;;;;;24.38;0.00;60892.56;5937479;23;20037;-92
2023/06/30 13:06:36;;;;;;;0.30;0.30;;;;;;;-145.06;0.00;60892.56;5936690;23;20013;-91
2023/06/30 13:09:15;;;;;;;0.20;0.10;;;;;;;-145.06;0.00;60892.56;5937826;23;20096;-91
2023/06/30 13:11:55;;;;;;;0.20;0.20;;;;;;;-145.06;0.00;60892.56;5937794;23;20009;-91
2023/06/30 13:14:34;;;;;;;1.10;0.30;;;;;;;-145.06;0.00;60892.56;5937537;23;20010;-92
2023/06/30 13:17:14;;;;;;;0.30;0.30;;;;;;;24.59;0.00;60892.56;5938286;23;20318;-91
2023/06/30 13:19:54;;;;;;;0.40;0.28;;;;;;;-145.06;0.00;60892.56;5936819;23;20037;-91
2023/06/30 13:22:32;;;;;;;0.50;0.30;;;;;;;24.97;0.00;60892.56;5937687;23;20377;-91
2023/06/30 13:25:13;;;;;;;0.50;0.40;;;;;;;-145.06;0.00;60892.56;5936493;23;20443;-92
2023/06/30 13:27:52;;;;;;;0.65;0.30;;;;;;;-145.06;0.00;60892.56;5937391;23;20345;-91
2023/06/30 13:30:31;;;;;;;0.98;0.30;;;;;;;-145.06;0.00;60892.56;5936928;23;20013;-91
2023/06/30 13:33:10;;;;;;;0.20;0.20;;;;;;;41.86;0.00;60892.56;5936371;23;20006;-91
2023/06/30 13:35:49;;;;;;;0.63;0.30;;;;;;;-145.06;0.00;60892.56;5936621;23;20013;-92
2023/06/30 13:38:28;;;;;;;0.30;0.22;;;;;;;-145.06;0.00;60892.56;5938444;23;20010;-92
2023/06/30 13:41:07;;;;;;;0.40;0.40;;;;;;;-145.06;0.00;60892.56;5948655;23;20017;-91
2023/06/30 13:43:46;;;;;;;0.60;0.30;;;;;;;-145.06;0.00;60892.56;5947883;23;20013;-91
2023/06/30 13:46:25;;;;;;;0.85;0.40;;;;;;;-145.06;0.00;60892.56;5936892;23;20433;-91
2023/06/30 13:49:04;;;;;;;0.40;0.30;;;;;;;-145.06;0.00;60892.56;5936191;23;20009;-91
2023/06/30 13:51:43;;;;;;;0.50;0.40;;;;;;;-145.06;0.00;60892.56;5941492;23;20306;-91
2023/06/30 13:54:23;;;;;;;0.30;0.30;;;;;;;-145.06;0.00;60892.56;5945495;23;20009;-92
2023/06/30 13:57:02;;;;;;;0.30;0.30;;;;;;;-145.06;0.00;60892.56;5945245;23;20009;-90
2023/06/30 13:59:41;;;;;;;0.25;0.20;;;;;;;-145.06;0.00;60892.56;5946768;23;20013;-91
2023/06/30 14:02:20;;;;;;;0.43;0.40;;;;;;;-145.06;0.00;60892.56;5945834;23;20009;-91
2023/06/30 14:04:59;;;;;;;0.45;0.38;;;;;;;-145.06;0.00;60892.56;5947340;23;20089;-91
2023/06/30 14:07:38;;;;;;;0.50;0.25;;;;;;;-145.06;0.00;60892.56;5978269;23;20009;-90
2023/06/30 14:10:17;;;;;;;0.25;0.20;;;;;;;-145.06;0.00;60892.56;5946000;23;20036;-91
2023/06/30 14:12:56;;;;;;;0.73;0.20;;;;;;;-145.06;0.00;60892.56;5946421;23;20005;-91
2023/06/30 14:15:35;;;;;;;1.95;0.40;;;;;;;-145.06;0.00;60892.56;5945729;23;20317;-90
2023/06/30 14:18:14;;;;;;;1.13;0.40;;;;;;;-145.06;0.00;60892.56;5945024;23;20013;-90
2023/06/30 14:20:53;;;;;;;0.40;0.20;;;;;;;-145.06;0.00;60892.56;5966270;23;19989;-90
2023/06/30 14:23:32;;;;;;;0.25;0.20;;;;;;;-145.06;0.00;60892.56;5969512;23;20009;-91
2023/06/30 14:26:11;;;;;;;0.20;0.20;;;;;;;-145.06;0.00;60892.56;5945924;23;20029;-90
2023/06/30 14:28:54;;;;;;;1.00;0.30;;;;;;;-145.06;0.00;60892.56;5945392;23;20433;-90
2023/06/30 14:31:33;;;;;;;1.00;0.20;;;;;;;-145.06;0.00;60892.56;5942503;23;20032;-90
2023/06/30 14:34:12;;;;;;;0.30;0.30;;;;;;;-145.06;0.00;60892.56;5944274;23;20001;-90
2023/06/30 14:36:51;;;;;;;0.32;0.30;;;;;;;-145.06;0.00;60892.56;5975583;23;20432;-90
2023/06/30 14:39:30;;;;;;;0.43;0.28;;;;;;;-145.06;0.00;60892.56;5943910;23;20009;-91
2023/06/30 14:42:09;;;;;;;0.65;0.30;;;;;;;-145.06;0.00;60892.56;5944715;23;20005;-90